Time;durP1;ratioP1;P1;durP2;ratioP2;P2;SDS_P1;SDS_P2;PMS_P1;PMS_P2;Temp;Humidity;BMP_temperature;BMP_pressure;BME280_temperature;BME280_humidity;BME280_pressure;Samples;Min_cycle;Max_cycle;Signal;HPM_P1;HPM_P2
2023/10/21 00:01:27;;;;;;;20;8.7;;;;;;;17.09;78.39;;;;;
2023/10/21 00:11:27;;;;;;;20;8.7;;;;;;;17.4;77.16;;;;;
2023/10/21 00:22:27;;;;;;;20;8.7;;;;;;;17.62;77.09;;;;;
2023/10/21 00:32:27;;;;;;;18.2;7.7;;;;;;;17.95;75.05;;;;;
2023/10/21 00:42:27;;;;;;;18.2;7.7;;;;;;;18.23;72.73;;;;;
2023/10/21 00:53:27;;;;;;;18.2;7.7;;;;;;;18;74.73;;;;;
2023/10/21 01:04:27;;;;;;;16.9;8.1;;;;;;;17.52;76.76;;;;;
2023/10/21 01:14:27;;;;;;;16.9;8.1;;;;;;;17.43;76.96;;;;;
2023/10/21 01:24:27;;;;;;;16.9;8.1;;;;;;;17.43;77.21;;;;;
2023/10/21 01:34:28;;;;;;;17.3;8.3;;;;;;;16.81;80.56;;;;;
2023/10/21 01:45:27;;;;;;;17.3;8.3;;;;;;;16.79;80.75;;;;;
2023/10/21 01:55:27;;;;;;;17.3;8.3;;;;;;;17.11;79.27;;;;;
2023/10/21 02:06:27;;;;;;;17.9;9.1;;;;;;;17.81;76.07;;;;;
2023/10/21 02:16:27;;;;;;;17.9;9.1;;;;;;;18.01;75.19;;;;;
2023/10/21 02:26:27;;;;;;;17.9;9.1;;;;;;;18;75.57;;;;;
2023/10/21 02:37:27;;;;;;;23.2;8;;;;;;;17.7;77.03;;;;;
2023/10/21 02:47:27;;;;;;;23.2;8;;;;;;;17.19;79.02;;;;;
2023/10/21 02:57:27;;;;;;;23.2;8;;;;;;;17.24;79.11;;;;;
2023/10/21 03:07:27;;;;;;;19.1;7.4;;;;;;;17.59;77.68;;;;;
2023/10/21 03:17:27;;;;;;;19.1;7.4;;;;;;;17.53;78.67;;;;;
2023/10/21 03:28:27;;;;;;;19.1;7.4;;;;;;;17.4;79;;;;;
2023/10/21 03:38:27;;;;;;;18.4;7.5;;;;;;;17.59;78.41;;;;;
2023/10/21 03:48:27;;;;;;;18.4;7.5;;;;;;;18.04;76.43;;;;;
2023/10/21 03:58:27;;;;;;;18.4;7.5;;;;;;;18.11;76.12;;;;;
2023/10/21 04:09:27;;;;;;;18.9;8.5;;;;;;;17.97;76.8;;;;;
2023/10/21 04:20:27;;;;;;;18.9;8.5;;;;;;;17.99;76.37;;;;;
2023/10/21 04:30:27;;;;;;;17.4;7.4;;;;;;;17.72;77.25;;;;;
2023/10/21 04:41:27;;;;;;;17.4;7.4;;;;;;;18.7;73.85;;;;;
2023/10/21 04:52:27;;;;;;;17.4;7.4;;;;;;;18.97;72.65;;;;;
2023/10/21 05:03:27;;;;;;;14;6.5;;;;;;;19.3;70.22;;;;;
2023/10/21 05:13:27;;;;;;;14;6.5;;;;;;;18.83;73.43;;;;;
2023/10/21 05:23:27;;;;;;;14;6.5;;;;;;;18.11;75.79;;;;;
2023/10/21 05:34:27;;;;;;;18.6;9.2;;;;;;;17.64;76.29;;;;;
2023/10/21 05:44:27;;;;;;;18.6;9.2;;;;;;;17.25;78.53;;;;;
2023/10/21 05:55:27;;;;;;;18.6;9.2;;;;;;;17.07;79.86;;;;;
2023/10/21 06:05:27;;;;;;;14.7;8.9;;;;;;;17.07;80.5;;;;;
2023/10/21 06:15:27;;;;;;;14.7;8.9;;;;;;;17.28;80.93;;;;;
2023/10/21 06:26:27;;;;;;;14.7;8.9;;;;;;;17.41;81.37;;;;;
2023/10/21 06:36:27;;;;;;;15.6;7.6;;;;;;;17.56;81.21;;;;;
2023/10/21 06:46:27;;;;;;;15.6;7.6;;;;;;;17.77;81.31;;;;;
2023/10/21 06:57:27;;;;;;;15.6;7.6;;;;;;;18.1;80.22;;;;;
2023/10/21 07:08:27;;;;;;;17.1;6.2;;;;;;;18.43;79.06;;;;;
2023/10/21 07:19:27;;;;;;;17.1;6.2;;;;;;;18.5;78.89;;;;;
2023/10/21 07:29:27;;;;;;;17.1;6.2;;;;;;;18.7;78.18;;;;;
2023/10/21 07:40:28;;;;;;;16.9;7.9;;;;;;;18.91;75.58;;;;;
2023/10/21 07:51:27;;;;;;;16.9;7.9;;;;;;;19.07;75.7;;;;;
2023/10/21 08:01:28;;;;;;;19.8;8.9;;;;;;;18.86;77.83;;;;;
2023/10/21 08:12:28;;;;;;;19.8;8.9;;;;;;;19.11;78.23;;;;;
2023/10/21 08:22:27;;;;;;;19.8;8.9;;;;;;;19.35;77.58;;;;;
2023/10/21 08:32:27;;;;;;;16.4;9.7;;;;;;;19.67;77.63;;;;;
2023/10/21 08:43:27;;;;;;;16.4;9.7;;;;;;;20.04;72.42;;;;;
2023/10/21 08:53:27;;;;;;;16.4;9.7;;;;;;;20.48;73.11;;;;;
2023/10/21 09:03:27;;;;;;;15.4;6.1;;;;;;;21.09;71.28;;;;;
2023/10/21 09:14:29;;;;;;;15.4;6.1;;;;;;;21.72;67.22;;;;;
2023/10/21 09:25:28;;;;;;;15.4;6.1;;;;;;;22.01;65.22;;;;;
2023/10/21 09:36:27;;;;;;;10.1;4.7;;;;;;;22.35;63.74;;;;;
2023/10/21 09:47:29;;;;;;;10.1;4.7;;;;;;;22.66;63.52;;;;;
2023/10/21 09:57:27;;;;;;;10.1;4.7;;;;;;;22.73;62.83;;;;;
2023/10/21 10:08:27;;;;;;;16.4;7.1;;;;;;;22.94;60.06;;;;;
2023/10/21 10:19:27;;;;;;;16.4;7.1;;;;;;;23.15;60.3;;;;;
2023/10/21 10:30:30;;;;;;;12.4;4.9;;;;;;;23.02;59.59;;;;;
2023/10/21 10:41:27;;;;;;;12.4;4.9;;;;;;;23.44;59.64;;;;;
2023/10/21 10:52:27;;;;;;;12.4;4.9;;;;;;;23.8;58.98;;;;;
2023/10/21 11:02:28;;;;;;;9.2;4.7;;;;;;;23.96;58.93;;;;;
2023/10/21 11:13:27;;;;;;;9.2;4.7;;;;;;;24.1;56.52;;;;;
2023/10/21 11:23:28;;;;;;;9.2;4.7;;;;;;;24.6;55.36;;;;;
2023/10/21 11:34:27;;;;;;;6.5;3.6;;;;;;;24.56;54.88;;;;;
2023/10/21 11:45:29;;;;;;;6.5;3.6;;;;;;;24.64;53.24;;;;;
2023/10/21 12:08:13;;;;;;;11.6;4.7;;;;;;;23.74;56.86;;;;;
2023/10/21 12:29:12;;;;;;;11.6;4.7;;;;;;;23.25;57.56;;;;;
2023/10/21 12:39:37;;;;;;;8.2;3.3;;;;;;;23.29;57.51;;;;;
2023/10/21 12:49:28;;;;;;;8.2;3.3;;;;;;;22.95;57.62;;;;;
2023/10/21 12:59:28;;;;;;;8.2;3.3;;;;;;;22.7;58.96;;;;;
2023/10/21 13:10:27;;;;;;;8.6;2.8;;;;;;;22.75;58.02;;;;;
2023/10/21 13:20:27;;;;;;;8.6;2.8;;;;;;;22.64;58.85;;;;;
2023/10/21 13:31:27;;;;;;;7.2;3;;;;;;;22.81;58.56;;;;;
2023/10/21 13:41:27;;;;;;;7.2;3;;;;;;;22.51;59.29;;;;;
2023/10/21 13:52:27;;;;;;;7.2;3;;;;;;;22.52;59.93;;;;;
2023/10/21 14:03:28;;;;;;;9.8;3.6;;;;;;;22.38;60.83;;;;;
2023/10/21 14:14:27;;;;;;;9.8;3.6;;;;;;;22.14;64.53;;;;;
2023/10/21 14:25:27;;;;;;;9.8;3.6;;;;;;;21.68;65.29;;;;;
2023/10/21 14:36:28;;;;;;;10;3.8;;;;;;;21.29;67.11;;;;;
2023/10/21 14:47:30;;;;;;;10;3.8;;;;;;;20.98;67.06;;;;;
2023/10/21 14:57:27;;;;;;;10;3.8;;;;;;;20.59;68.72;;;;;
2023/10/21 15:08:28;;;;;;;7.2;3.9;;;;;;;20.05;69.96;;;;;
2023/10/21 15:18:27;;;;;;;7.2;3.9;;;;;;;19.52;70.52;;;;;
2023/10/21 15:29:30;;;;;;;7.2;3.9;;;;;;;19.01;74.87;;;;;
2023/10/21 15:39:27;;;;;;;13.1;8.7;;;;;;;18.71;75.1;;;;;
2023/10/21 15:50:27;;;;;;;13.1;8.7;;;;;;;18.37;76.65;;;;;
2023/10/21 16:01:34;;;;;;;23.7;17.2;;;;;;;18.1;76.68;;;;;
2023/10/21 16:12:28;;;;;;;23.7;17.2;;;;;;;17.86;77.49;;;;;
2023/10/21 16:22:30;;;;;;;23.7;17.2;;;;;;;17.66;79.81;;;;;
2023/10/21 16:33:27;;;;;;;14.2;10.9;;;;;;;17.5;78.98;;;;;
2023/10/21 16:43:28;;;;;;;14.2;10.9;;;;;;;17.3;79.29;;;;;
2023/10/21 16:53:28;;;;;;;14.2;10.9;;;;;;;17.05;79.62;;;;;
2023/10/21 17:04:28;;;;;;;16.2;10.1;;;;;;;16.8;80.62;;;;;
2023/10/21 17:15:30;;;;;;;16.2;10.1;;;;;;;16.44;81.27;;;;;
2023/10/21 17:25:28;;;;;;;16.2;10.1;;;;;;;16.42;82.8;;;;;
2023/10/21 17:36:27;;;;;;;23.2;18.3;;;;;;;16.51;83.15;;;;;
2023/10/21 17:46:28;;;;;;;23.2;18.3;;;;;;;16.25;82.36;;;;;
2023/10/21 17:57:29;;;;;;;23.2;18.3;;;;;;;16.07;82.49;;;;;
2023/10/21 18:08:27;;;;;;;28.7;20.5;;;;;;;15.97;83.64;;;;;
2023/10/21 18:18:28;;;;;;;28.7;20.5;;;;;;;16.09;84.09;;;;;
2023/10/21 18:28:27;;;;;;;28.7;20.5;;;;;;;16.2;83.23;;;;;
2023/10/21 18:38:27;;;;;;;16.8;12.2;;;;;;;16.27;82.67;;;;;
2023/10/21 18:49:27;;;;;;;16.8;12.2;;;;;;;16.1;81.79;;;;;
2023/10/21 18:59:28;;;;;;;16.8;12.2;;;;;;;15.86;81.94;;;;;
2023/10/21 19:10:27;;;;;;;18.1;13.6;;;;;;;15.6;82.69;;;;;
2023/10/21 19:20:27;;;;;;;18.1;13.6;;;;;;;15.43;83.05;;;;;
2023/10/21 19:30:28;;;;;;;28.7;21.7;;;;;;;15.25;85.43;;;;;
2023/10/21 19:41:28;;;;;;;28.7;21.7;;;;;;;15.12;85.86;;;;;
2023/10/21 19:52:27;;;;;;;28.7;21.7;;;;;;;15.03;85.77;;;;;
2023/10/21 20:03:27;;;;;;;27.5;21.4;;;;;;;14.98;85.85;;;;;
2023/10/21 20:13:27;;;;;;;27.5;21.4;;;;;;;14.99;86.51;;;;;
2023/10/21 20:23:27;;;;;;;27.5;21.4;;;;;;;15.1;86.53;;;;;
2023/10/21 20:33:27;;;;;;;25.6;18.3;;;;;;;15.18;86.61;;;;;
2023/10/21 20:44:27;;;;;;;25.6;18.3;;;;;;;15.73;85.47;;;;;
2023/10/21 20:54:27;;;;;;;25.6;18.3;;;;;;;15.84;86.09;;;;;
2023/10/21 21:04:27;;;;;;;11.4;7.2;;;;;;;15.84;86.8;;;;;
2023/10/21 21:15:28;;;;;;;11.4;7.2;;;;;;;15.93;86.87;;;;;
2023/10/21 21:25:27;;;;;;;11.4;7.2;;;;;;;15.98;87.11;;;;;
2023/10/21 21:35:27;;;;;;;10.7;5.6;;;;;;;15.74;88.41;;;;;
2023/10/21 21:45:27;;;;;;;10.7;5.6;;;;;;;15.83;87.63;;;;;
2023/10/21 21:55:28;;;;;;;10.7;5.6;;;;;;;15.84;87.4;;;;;
2023/10/21 22:06:28;;;;;;;11.8;5.7;;;;;;;15.83;87.4;;;;;
2023/10/21 22:16:27;;;;;;;11.8;5.7;;;;;;;15.65;88.38;;;;;
2023/10/21 22:27:28;;;;;;;11.8;5.7;;;;;;;15.69;87.6;;;;;
2023/10/21 22:38:27;;;;;;;9.1;4.9;;;;;;;15.64;87.55;;;;;
2023/10/21 22:48:27;;;;;;;9.1;4.9;;;;;;;15.63;87.84;;;;;
2023/10/21 22:58:27;;;;;;;9.1;4.9;;;;;;;15.54;88.46;;;;;
2023/10/21 23:08:35;;;;;;;9.6;5.9;;;;;;;15.56;88.46;;;;;
2023/10/21 23:18:28;;;;;;;9.6;5.9;;;;;;;15.6;88.1;;;;;
2023/10/21 23:28:28;;;;;;;9.6;5.9;;;;;;;15.47;88.38;;;;;
2023/10/21 23:39:28;;;;;;;16.6;11.1;;;;;;;15.39;88.43;;;;;
2023/10/21 23:50:28;;;;;;;16.6;11.1;;;;;;;15.38;88.58;;;;;
